createdAt,value
2018-05-08T00:00:21.769Z,98987.45
2018-05-08T00:02:49.293Z,98982.91
2018-05-08T00:05:16.900Z,98978.66
2018-05-08T00:07:44.424Z,98984.41
2018-05-08T00:10:12.424Z,98981.68
2018-05-08T00:12:39.988Z,98980.67
2018-05-08T00:15:07.553Z,98983.33
2018-05-08T00:17:35.110Z,98980.36
2018-05-08T00:20:02.663Z,98978.18
2018-05-08T00:22:30.213Z,98972.78
2018-05-08T00:24:57.791Z,98980.44
2018-05-08T00:27:25.344Z,98977.09
2018-05-08T00:29:52.906Z,98974.90
2018-05-08T00:32:20.567Z,98975.53
2018-05-08T00:34:48.125Z,98971.59
2018-05-08T00:37:15.897Z,98966.59
2018-05-08T00:39:43.452Z,98966.81
2018-05-08T00:42:11.030Z,98963.20
2018-05-08T00:44:38.557Z,98960.81
2018-05-08T00:47:06.110Z,98959.29
2018-05-08T00:49:33.688Z,98955.88
2018-05-08T00:52:01.360Z,98958.92
2018-05-08T00:54:40.668Z,98950.11
2018-05-08T00:57:08.347Z,98956.87
2018-05-08T00:59:35.871Z,98956.72
2018-05-08T01:02:03.436Z,98953.08
2018-05-08T01:04:31.129Z,98946.68
2018-05-08T01:06:58.649Z,98946.86
2018-05-08T01:09:26.228Z,98945.99
2018-05-08T01:11:53.758Z,98946.99
2018-05-08T01:14:21.382Z,98949.55
2018-05-08T01:16:48.939Z,98949.36
2018-05-08T01:19:16.590Z,98952.92
2018-05-08T01:21:44.146Z,98954.38
2018-05-08T01:24:11.795Z,98955.44
2018-05-08T01:26:39.375Z,98952.41
2018-05-08T01:29:07.041Z,98949.52
2018-05-08T01:31:34.656Z,98948.72
2018-05-08T01:34:02.153Z,98944.69
2018-05-08T01:36:30.603Z,98938.47
2018-05-08T01:38:58.154Z,98934.31
2018-05-08T01:41:25.707Z,98930.09
2018-05-08T01:43:53.313Z,98928.81
2018-05-08T01:46:20.973Z,98921.64
2018-05-08T01:48:48.484Z,98931.80
2018-05-08T01:51:16.040Z,98926.02
2018-05-08T01:53:44.022Z,98931.37
2018-05-08T01:56:11.569Z,98928.23
2018-05-08T01:58:39.178Z,98933.91
2018-05-08T02:01:06.725Z,98922.14
2018-05-08T02:03:34.297Z,98928.12
2018-05-08T02:06:01.960Z,98927.13
2018-05-08T02:08:29.535Z,98935.86
2018-05-08T02:10:57.086Z,98926.17
2018-05-08T02:13:24.945Z,98926.67
2018-05-08T02:15:52.487Z,98929.50
2018-05-08T02:18:20.040Z,98927.53
2018-05-08T02:20:47.602Z,98922.25
2018-05-08T02:23:15.297Z,98924.04
2018-05-08T02:25:42.822Z,98918.59
2018-05-08T02:28:10.404Z,98919.16
2018-05-08T02:30:37.965Z,98922.35
2018-05-08T02:33:05.504Z,98916.97
2018-05-08T02:35:33.085Z,98922.09
2018-05-08T02:38:00.658Z,98921.91
2018-05-08T02:40:28.212Z,98915.53
2018-05-08T02:42:55.765Z,98914.28
2018-05-08T02:45:23.315Z,98914.27
2018-05-08T02:47:50.889Z,98919.36
2018-05-08T02:50:18.473Z,98913.50
2018-05-08T02:52:46.104Z,98910.15
2018-05-08T02:55:14.589Z,98913.21
2018-05-08T02:57:42.130Z,98908.89
2018-05-08T03:00:09.806Z,98908.77
2018-05-08T03:02:37.376Z,98903.63
2018-05-08T03:05:05.034Z,98913.55
2018-05-08T03:07:32.586Z,98915.33
2018-05-08T03:10:00.167Z,98914.65
2018-05-08T03:12:27.689Z,98907.86
2018-05-08T03:14:55.264Z,98913.28
2018-05-08T03:17:22.789Z,98914.38
2018-05-08T03:19:50.495Z,98916.05
2018-05-08T03:22:18.058Z,98908.89
2018-05-08T03:24:45.707Z,98908.89
2018-05-08T03:27:13.370Z,98913.76
2018-05-08T03:29:40.929Z,98907.08
2018-05-08T03:32:08.477Z,98905.36
2018-05-08T03:34:36.061Z,98911.27
2018-05-08T03:37:03.614Z,98908.78
2018-05-08T03:39:31.271Z,98922.30
2018-05-08T03:41:58.862Z,98912.77
2018-05-08T03:44:26.394Z,98911.27
2018-05-08T03:46:53.947Z,98917.14
2018-05-08T03:49:21.519Z,98919.08
2018-05-08T03:51:49.176Z,98905.77
2018-05-08T03:54:16.728Z,98906.88
2018-05-08T03:56:44.903Z,98915.97
2018-05-08T03:59:12.463Z,98912.92
2018-05-08T04:01:51.914Z,98915.69
2018-05-08T04:04:31.185Z,98915.70
2018-05-08T04:07:10.583Z,98913.88
2018-05-08T04:09:38.115Z,98903.05
2018-05-08T04:12:05.694Z,98911.68
2018-05-08T04:14:33.249Z,98910.34
2018-05-08T04:17:00.811Z,98912.58
2018-05-08T04:19:28.396Z,98909.58
2018-05-08T04:21:56.032Z,98898.41
2018-05-08T04:24:23.599Z,98903.64
2018-05-08T04:26:51.156Z,98902.17
2018-05-08T04:29:18.814Z,98897.34
2018-05-08T04:31:46.338Z,98902.14
2018-05-08T04:34:14.965Z,98884.23
2018-05-08T04:36:42.642Z,98902.44
2018-05-08T04:39:10.280Z,98902.66
2018-05-08T04:41:37.794Z,98903.22
2018-05-08T04:44:05.403Z,98900.83
2018-05-08T04:46:32.924Z,98896.08
2018-05-08T04:49:00.527Z,98900.21
2018-05-08T04:51:28.081Z,98904.42
2018-05-08T04:53:55.743Z,98902.38
2018-05-08T04:56:23.298Z,98900.90
2018-05-08T04:58:50.885Z,98897.69
2018-05-08T05:01:19.043Z,98901.16
2018-05-08T05:03:46.592Z,98907.95
2018-05-08T05:06:15.041Z,98912.81
2018-05-08T05:08:42.572Z,98911.59
2018-05-08T05:11:10.151Z,98913.51
2018-05-08T05:13:37.753Z,98922.16
2018-05-08T05:16:05.301Z,98917.45
2018-05-08T05:18:32.832Z,98912.14
2018-05-08T05:21:00.378Z,98922.62
2018-05-08T05:23:27.903Z,98912.42
2018-05-08T05:25:55.863Z,98917.92
2018-05-08T05:28:23.466Z,98912.72
2018-05-08T05:30:51.066Z,98909.13
2018-05-08T05:33:18.638Z,98911.58
2018-05-08T05:35:46.169Z,98907.96
2018-05-08T05:38:13.722Z,98904.55
2018-05-08T05:40:41.328Z,98894.27
2018-05-08T05:43:08.981Z,98893.54
2018-05-08T05:45:36.546Z,98887.27
2018-05-08T05:48:04.200Z,98885.61
2018-05-08T05:50:31.733Z,98876.97
2018-05-08T05:52:59.323Z,98883.69
2018-05-08T05:55:27.296Z,98887.06
2018-05-08T05:57:54.904Z,98880.84
2018-05-08T06:00:22.442Z,98877.59
2018-05-08T06:02:49.996Z,98869.52
2018-05-08T06:05:17.547Z,98874.41
2018-05-08T06:07:45.248Z,98872.85
2018-05-08T06:10:12.954Z,98864.83
2018-05-08T06:12:40.506Z,98869.48
2018-05-08T06:15:08.083Z,98867.73
2018-05-08T06:20:06.027Z,98870.77
2018-05-08T06:22:33.735Z,98867.73
2018-05-08T06:25:01.383Z,98869.84
2018-05-08T06:27:28.915Z,98872.48
2018-05-08T06:29:56.470Z,98869.39
2018-05-08T06:32:23.997Z,98863.33
2018-05-08T06:34:51.724Z,98859.18
2018-05-08T06:37:19.281Z,98861.34
2018-05-08T06:39:46.856Z,98856.69
2018-05-08T06:42:15.430Z,98858.14
2018-05-08T06:44:43.011Z,98863.33
2018-05-08T06:47:10.534Z,98856.64
2018-05-08T06:49:38.211Z,98856.31
2018-05-08T06:52:05.775Z,98852.15
2018-05-08T06:54:33.442Z,98859.91
2018-05-08T06:57:00.969Z,98855.67
2018-05-08T06:59:28.547Z,98848.95
2018-05-08T07:01:56.094Z,98846.73
2018-05-08T07:04:23.666Z,98846.38
2018-05-08T07:06:51.227Z,98843.93
2018-05-08T07:09:18.804Z,98840.89
2018-05-08T07:11:46.424Z,98845.96
2018-05-08T07:14:13.955Z,98839.11
2018-05-08T07:16:41.513Z,98833.75
2018-05-08T07:19:09.059Z,98830.72
2018-05-08T07:21:36.614Z,98834.39
2018-05-08T07:24:07.587Z,98835.35
2018-05-08T07:26:35.493Z,98830.45
2018-05-08T07:29:03.720Z,98832.13
2018-05-08T07:31:31.330Z,98835.30
2018-05-08T07:33:58.876Z,98835.48
2018-05-08T07:36:26.653Z,98838.75
2018-05-08T07:38:54.326Z,98838.17
2018-05-08T07:41:22.035Z,98833.23
2018-05-08T07:43:49.848Z,98836.45
2018-05-08T07:46:17.438Z,98830.43
2018-05-08T07:48:46.293Z,98839.12
2018-05-08T07:51:14.820Z,98827.63
2018-05-08T07:53:42.346Z,98836.95
2018-05-08T07:56:10.822Z,98835.64
2018-05-08T07:58:38.499Z,98836.95
2018-05-08T08:01:07.124Z,98837.48
2018-05-08T08:03:34.647Z,98837.09
2018-05-08T08:06:02.932Z,98830.23
2018-05-08T08:08:30.506Z,98831.81
2018-05-08T08:10:58.267Z,98826.06
2018-05-08T08:13:27.008Z,98828.15
2018-05-08T08:15:54.873Z,98821.96
2018-05-08T08:18:23.511Z,98821.34
2018-05-08T08:20:51.067Z,98819.91
2018-05-08T08:23:19.445Z,98818.05
2018-05-08T08:25:47.046Z,98814.63
2018-05-08T08:28:15.773Z,98811.50
2018-05-08T08:30:43.621Z,98807.08
2018-05-08T08:33:11.275Z,98802.46
2018-05-08T08:35:38.912Z,98809.89
2018-05-08T08:38:06.939Z,98806.39
2018-05-08T08:40:34.780Z,98808.34
2018-05-08T08:43:02.387Z,98804.73
2018-05-08T08:45:30.636Z,98797.48
2018-05-08T08:48:00.039Z,98800.53
2018-05-08T08:50:27.645Z,98789.80
2018-05-08T08:52:55.226Z,98789.84
2018-05-08T08:55:22.746Z,98786.38
2018-05-08T08:57:50.454Z,98789.97
2018-05-08T09:00:18.119Z,98785.27
2018-05-08T09:02:47.006Z,98784.66
2018-05-08T09:05:14.544Z,98784.77
2018-05-08T09:07:42.430Z,98777.25
2018-05-08T09:10:10.515Z,98787.56
2018-05-08T09:12:38.116Z,98778.67
2018-05-08T09:15:05.663Z,98775.53
2018-05-08T09:17:36.497Z,98768.78
2018-05-08T09:20:04.427Z,98781.92
2018-05-08T09:22:32.125Z,98782.11
2018-05-08T09:24:59.935Z,98777.00
2018-05-08T09:27:28.132Z,98777.27
2018-05-08T09:29:55.691Z,98773.70
2018-05-08T09:32:23.353Z,98764.52
2018-05-08T09:34:51.186Z,98763.97
2018-05-08T09:37:18.790Z,98767.65
2018-05-08T09:39:46.344Z,98768.77
2018-05-08T09:42:15.677Z,98769.40
2018-05-08T09:44:43.322Z,98761.16
2018-05-08T09:47:10.968Z,98749.34
2018-05-08T09:49:38.727Z,98755.49
2018-05-08T09:52:06.905Z,98748.28
2018-05-08T09:54:34.482Z,98737.22
2018-05-08T09:57:03.059Z,98739.77
2018-05-08T09:59:31.608Z,98733.07
2018-05-08T10:01:59.184Z,98733.25
2018-05-08T10:04:28.817Z,98731.55
2018-05-08T10:06:56.566Z,98722.66
2018-05-08T10:09:26.671Z,98721.30
2018-05-08T10:11:55.165Z,98719.64
2018-05-08T10:14:23.639Z,98718.03
2018-05-08T10:16:51.198Z,98721.84
2018-05-08T10:19:19.677Z,98713.91
2018-05-08T10:21:48.745Z,98721.97
2018-05-08T10:24:22.236Z,98717.62
2018-05-08T10:26:50.494Z,98718.03
2018-05-08T10:29:18.831Z,98713.77
2018-05-08T10:31:46.696Z,98718.05
2018-05-08T10:34:14.356Z,98714.45
2018-05-08T10:36:42.758Z,98713.19
2018-05-08T10:39:10.745Z,98706.91
2018-05-08T10:41:38.469Z,98704.70
2018-05-08T10:44:07.267Z,98695.50
2018-05-08T10:46:35.225Z,98694.64
2018-05-08T10:49:03.829Z,98692.08
2018-05-08T10:51:35.237Z,98690.27
2018-05-08T10:54:04.111Z,98687.18
2018-05-08T10:56:32.324Z,98683.77
2018-05-08T10:59:00.161Z,98685.05
2018-05-08T11:01:27.714Z,98692.88
2018-05-08T11:03:56.029Z,98686.31
2018-05-08T11:06:23.690Z,98673.97
2018-05-08T11:08:51.845Z,98665.08
2018-05-08T11:11:19.449Z,98671.09
2018-05-08T11:13:47.029Z,98668.87
2018-05-08T11:16:15.280Z,98670.20
2018-05-08T11:18:42.832Z,98661.21
2018-05-08T11:21:10.381Z,98650.27
2018-05-08T11:23:37.935Z,98651.70
2018-05-08T11:26:05.514Z,98652.95
2018-05-08T11:28:33.055Z,98647.78
2018-05-08T11:31:00.611Z,98643.78
2018-05-08T11:33:28.172Z,98644.52
2018-05-08T11:35:55.717Z,98637.01
2018-05-08T11:38:23.249Z,98636.11
2018-05-08T11:40:50.852Z,98641.50
2018-05-08T11:43:18.349Z,98637.05
2018-05-08T11:45:45.972Z,98634.23
2018-05-08T11:48:13.641Z,98619.53
2018-05-08T11:50:41.207Z,98624.54
2018-05-08T11:53:08.761Z,98615.34
2018-05-08T11:55:36.338Z,98618.52
2018-05-08T11:58:03.979Z,98613.91
2018-05-08T12:00:31.493Z,98615.31
2018-05-08T12:02:59.094Z,98611.08
2018-05-08T12:05:26.623Z,98604.97
2018-05-08T12:07:54.180Z,98601.31
2018-05-08T12:10:22.497Z,98601.20
2018-05-08T12:12:50.052Z,98594.64
2018-05-08T12:15:17.606Z,98589.16
2018-05-08T12:17:45.159Z,98584.72
2018-05-08T12:20:12.686Z,98584.77
2018-05-08T12:22:40.238Z,98585.19
2018-05-08T12:25:07.846Z,98580.89
2018-05-08T12:27:35.418Z,98576.53
2018-05-08T12:30:02.945Z,98581.61
2018-05-08T12:32:30.500Z,98573.67
2018-05-08T12:34:58.025Z,98570.66
2018-05-08T12:37:25.600Z,98557.66
2018-05-08T12:39:53.130Z,98568.25
2018-05-08T12:42:20.658Z,98573.18
2018-05-08T12:44:48.209Z,98560.27
2018-05-08T12:47:15.778Z,98561.15
2018-05-08T12:49:43.418Z,98553.30
2018-05-08T12:52:10.963Z,98557.52
2018-05-08T12:54:38.570Z,98551.16
2018-05-08T12:57:06.120Z,98554.93
2018-05-08T12:59:33.781Z,98545.27
2018-05-08T13:02:01.301Z,98552.75
2018-05-08T13:04:28.873Z,98557.61
2018-05-08T13:06:56.472Z,98548.00
2018-05-08T13:09:24.133Z,98541.97
2018-05-08T13:11:52.704Z,98540.36
2018-05-08T13:14:20.233Z,98537.92
2018-05-08T13:16:47.837Z,98536.30
2018-05-08T13:19:15.391Z,98548.77
2018-05-08T13:21:43.048Z,98544.91
2018-05-08T13:24:10.613Z,98533.09
2018-05-08T13:26:38.252Z,98536.51
2018-05-08T13:29:05.798Z,98536.05
2018-05-08T13:31:33.499Z,98545.65
2018-05-08T13:34:01.052Z,98541.07
2018-05-08T13:36:30.774Z,98538.16
2018-05-08T13:38:58.316Z,98536.13
2018-05-08T13:41:25.978Z,98538.00
2018-05-08T13:43:53.641Z,98541.11
2018-05-08T13:46:21.214Z,98532.85
2018-05-08T13:48:48.782Z,98532.25
2018-05-08T13:51:16.341Z,98530.86
2018-05-08T13:53:43.878Z,98525.62
2018-05-08T13:56:11.439Z,98526.94
2018-05-08T13:58:38.998Z,98516.14
2018-05-08T14:01:06.557Z,98507.33
2018-05-08T14:03:34.106Z,98509.84
2018-05-08T14:06:01.682Z,98519.16
2018-05-08T14:08:29.232Z,98507.23
2018-05-08T14:10:56.781Z,98505.48
2018-05-08T14:13:24.353Z,98503.50
2018-05-08T14:15:52.941Z,98506.41
2018-05-08T14:18:20.514Z,98506.88
2018-05-08T14:20:48.056Z,98506.02
2018-05-08T14:23:15.622Z,98501.35
2018-05-08T14:25:43.177Z,98493.12
2018-05-08T14:28:10.735Z,98485.97
2018-05-08T14:30:38.307Z,98483.83
2018-05-08T14:33:05.877Z,98482.34
2018-05-08T14:35:33.408Z,98480.90
2018-05-08T14:38:00.978Z,98479.98
2018-05-08T14:40:28.533Z,98479.45
2018-05-08T14:42:56.210Z,98477.30
2018-05-08T14:45:23.766Z,98477.14
2018-05-08T14:47:51.420Z,98482.02
2018-05-08T14:50:18.976Z,98476.84
2018-05-08T14:52:46.535Z,98474.78
2018-05-08T14:55:14.154Z,98472.86
2018-05-08T14:57:41.731Z,98467.28
2018-05-08T15:00:09.333Z,98463.56
2018-05-08T15:02:36.883Z,98469.63
2018-05-08T15:05:04.539Z,98464.16
2018-05-08T15:07:32.065Z,98468.91
2018-05-08T15:09:59.616Z,98466.09
2018-05-08T15:12:27.141Z,98460.98
2018-05-08T15:14:54.693Z,98463.22
2018-05-08T15:17:23.257Z,98456.64
2018-05-08T15:19:50.874Z,98457.76
2018-05-08T15:22:18.466Z,98456.94
2018-05-08T15:24:46.002Z,98453.55
2018-05-08T15:27:13.530Z,98454.19
2018-05-08T15:29:41.157Z,98450.66
2018-05-08T15:32:08.687Z,98444.56
2018-05-08T15:34:36.265Z,98454.13
2018-05-08T15:37:03.835Z,98448.00
2018-05-08T15:39:31.410Z,98438.56
2018-05-08T15:41:58.948Z,98447.89
2018-05-08T15:44:26.523Z,98441.33
2018-05-08T15:46:54.103Z,98443.80
2018-05-08T15:49:21.734Z,98440.92
2018-05-08T15:51:49.397Z,98433.83
2018-05-08T15:54:17.030Z,98434.88
2018-05-08T15:56:44.607Z,98431.87
2018-05-08T15:59:12.183Z,98438.21
2018-05-08T16:01:39.845Z,98434.00
2018-05-08T16:04:07.387Z,98435.83
2018-05-08T16:06:34.940Z,98432.83
2018-05-08T16:09:03.365Z,98435.53
2018-05-08T16:11:31.013Z,98427.43
2018-05-08T16:13:58.574Z,98425.16
2018-05-08T16:16:26.146Z,98430.55
2018-05-08T16:18:53.824Z,98431.68
2018-05-08T16:21:21.453Z,98419.59
2018-05-08T16:23:48.977Z,98425.38
2018-05-08T16:26:16.667Z,98424.63
2018-05-08T16:28:44.221Z,98428.30
2018-05-08T16:31:11.780Z,98424.20
2018-05-08T16:33:39.341Z,98426.31
2018-05-08T16:36:07.016Z,98425.50
2018-05-08T16:38:34.568Z,98420.92
2018-05-08T16:41:02.122Z,98416.47
2018-05-08T16:43:29.683Z,98420.39
2018-05-08T16:45:57.250Z,98421.67
2018-05-08T16:48:24.803Z,98421.50
2018-05-08T16:50:52.378Z,98422.70
2018-05-08T16:53:19.928Z,98427.57
2018-05-08T16:55:47.587Z,98417.12
2018-05-08T16:58:15.142Z,98412.97
2018-05-08T17:00:42.701Z,98422.83
2018-05-08T17:03:10.265Z,98425.83
2018-05-08T17:05:37.899Z,98414.59
2018-05-08T17:08:05.493Z,98424.47
2018-05-08T17:10:33.109Z,98424.14
2018-05-08T17:13:00.707Z,98425.13
2018-05-08T17:15:28.253Z,98425.95
2018-05-08T17:17:55.824Z,98418.84
2018-05-08T17:20:23.383Z,98422.48
2018-05-08T17:22:51.056Z,98424.66
2018-05-08T17:25:18.611Z,98423.87
2018-05-08T17:27:46.163Z,98423.50
2018-05-08T17:30:13.722Z,98420.73
2018-05-08T17:32:41.280Z,98416.64
2018-05-08T17:35:08.841Z,98424.00
2018-05-08T17:37:36.519Z,98418.84
2018-05-08T17:40:04.174Z,98424.75
2018-05-08T17:42:31.827Z,98423.28
2018-05-08T17:44:59.356Z,98425.92
2018-05-08T17:47:26.950Z,98432.19
2018-05-08T17:49:54.482Z,98430.25
2018-05-08T17:52:22.180Z,98429.84
2018-05-08T17:54:49.737Z,98424.67
2018-05-08T17:57:17.568Z,98427.62
2018-05-08T17:59:45.153Z,98426.43
2018-05-08T18:02:12.746Z,98432.27
2018-05-08T18:04:40.380Z,98426.02
2018-05-08T18:07:07.948Z,98428.59
2018-05-08T18:09:35.500Z,98425.48
2018-05-08T18:12:03.155Z,98425.82
2018-05-08T18:14:30.713Z,98423.82
2018-05-08T18:16:58.377Z,98428.48
2018-05-08T18:19:25.936Z,98423.13
2018-05-08T18:21:53.606Z,98431.77
2018-05-08T18:24:21.139Z,98425.05
2018-05-08T18:26:48.717Z,98428.58
2018-05-08T18:29:16.242Z,98422.36
2018-05-08T18:31:43.819Z,98422.03
2018-05-08T18:34:11.399Z,98426.03
2018-05-08T18:36:38.953Z,98434.17
2018-05-08T18:39:06.593Z,98426.27
2018-05-08T18:41:34.141Z,98430.44
2018-05-08T18:44:01.791Z,98424.28
2018-05-08T18:46:30.011Z,98418.79
2018-05-08T18:48:57.585Z,98426.62
2018-05-08T18:51:25.134Z,98427.98
2018-05-08T18:53:52.740Z,98432.63
2018-05-08T18:56:20.266Z,98429.73
2018-05-08T18:58:47.844Z,98431.36
2018-05-08T19:01:15.474Z,98440.20
2018-05-08T19:03:43.152Z,98435.52
2018-05-08T19:06:10.801Z,98434.61
2018-05-08T19:08:40.403Z,98443.66
2018-05-08T19:11:13.492Z,98448.22
2018-05-08T19:13:41.064Z,98450.89
2018-05-08T19:16:08.611Z,98440.41
2018-05-08T19:18:41.841Z,98452.45
2018-05-08T19:21:09.436Z,98455.53
2018-05-08T19:23:37.190Z,98455.52
2018-05-08T19:26:04.720Z,98453.84
2018-05-08T19:31:36.125Z,98456.16
2018-05-08T19:34:03.697Z,98458.98
2018-05-08T19:36:36.785Z,98468.70
2018-05-08T19:39:05.350Z,98470.14
2018-05-08T19:41:32.831Z,98475.23
2018-05-08T19:44:00.405Z,98467.92
2018-05-08T19:46:27.942Z,98478.01
2018-05-08T19:48:55.514Z,98471.27
2018-05-08T19:51:23.041Z,98475.70
2018-05-08T19:53:50.593Z,98482.05
2018-05-08T19:56:18.206Z,98475.56
2018-05-08T19:58:45.863Z,98473.08
2018-05-08T20:01:13.404Z,98475.74
2018-05-08T20:03:40.927Z,98474.17
2018-05-08T20:06:25.550Z,98470.40
2018-05-08T20:12:06.681Z,98470.34
2018-05-08T20:14:34.312Z,98469.29
2018-05-08T20:17:01.842Z,98471.23
2018-05-08T20:19:29.814Z,98473.39
2018-05-08T20:21:57.490Z,98469.67
2018-05-08T20:24:25.022Z,98471.45
2018-05-08T20:26:52.573Z,98473.67
2018-05-08T20:29:20.177Z,98473.33
2018-05-08T20:31:48.240Z,98476.67
2018-05-08T20:34:15.901Z,98469.64
2018-05-08T20:36:43.460Z,98476.58
2018-05-08T20:39:10.984Z,98473.34
2018-05-08T20:41:38.539Z,98472.81
2018-05-08T20:44:06.065Z,98478.60
2018-05-08T20:46:33.611Z,98473.01
2018-05-08T20:49:01.119Z,98473.34
2018-05-08T20:51:28.716Z,98481.73
2018-05-08T20:53:56.247Z,98479.00
2018-05-08T20:56:23.826Z,98488.91
2018-05-08T20:58:51.352Z,98490.79
2018-05-08T21:01:18.985Z,98496.38
2018-05-08T21:03:46.513Z,98494.05
2018-05-08T21:06:14.176Z,98488.80
2018-05-08T21:08:41.838Z,98485.92
2018-05-08T21:11:09.398Z,98490.06
2018-05-08T21:13:36.969Z,98489.29
2018-05-08T21:16:04.518Z,98491.66
2018-05-08T21:18:32.075Z,98492.98
2018-05-08T21:21:00.549Z,98482.38
2018-05-08T21:23:28.073Z,98495.02
2018-05-08T21:25:56.624Z,98497.52
2018-05-08T21:28:29.778Z,98495.71
2018-05-08T21:31:02.953Z,98492.52
2018-05-08T21:33:30.505Z,98489.23
2018-05-08T21:35:58.099Z,98492.73
2018-05-08T21:38:25.886Z,98492.07
2018-05-08T21:40:56.284Z,98477.37
2018-05-08T21:43:24.046Z,98484.27
2018-05-08T21:45:51.717Z,98477.27
2018-05-08T21:48:19.276Z,98486.47
2018-05-08T21:50:46.849Z,98484.58
2018-05-08T21:53:14.501Z,98476.84
2018-05-08T21:55:44.177Z,98483.03
2018-05-08T21:58:12.717Z,98477.39
2018-05-08T22:00:41.463Z,98479.44
2018-05-08T22:03:11.432Z,98475.30
2018-05-08T22:05:41.727Z,98474.25
2018-05-08T22:08:09.518Z,98473.67
2018-05-08T22:10:39.664Z,98470.91
2018-05-08T22:13:07.314Z,98465.10
2018-05-08T22:15:35.720Z,98468.67
2018-05-08T22:18:05.069Z,98472.41
2018-05-08T22:20:34.848Z,98470.59
2018-05-08T22:23:04.377Z,98477.98
2018-05-08T22:25:33.079Z,98474.98
2018-05-08T22:28:01.181Z,98477.95
2018-05-08T22:30:29.388Z,98481.86
2018-05-08T22:32:59.984Z,98476.36
2018-05-08T22:35:30.883Z,98472.62
2018-05-08T22:37:58.913Z,98468.97
2018-05-08T22:40:27.365Z,98469.47
2018-05-08T22:42:55.372Z,98461.89
2018-05-08T22:45:24.069Z,98459.33
2018-05-08T22:47:52.350Z,98458.18
2018-05-08T22:50:20.128Z,98462.24
2018-05-08T22:52:48.130Z,98461.83
2018-05-08T22:55:17.759Z,98461.30
2018-05-08T22:57:45.759Z,98454.02
2018-05-08T23:00:15.463Z,98448.95
2018-05-08T23:02:44.665Z,98451.55
2018-05-08T23:05:12.863Z,98442.47
2018-05-08T23:07:42.112Z,98448.92
2018-05-08T23:10:10.219Z,98449.64
2018-05-08T23:12:38.898Z,98456.98
2018-05-08T23:15:07.178Z,98453.39
2018-05-08T23:17:34.724Z,98452.70
2018-05-08T23:20:02.290Z,98446.97
2018-05-08T23:22:29.833Z,98448.97
2018-05-08T23:24:57.409Z,98443.07
2018-05-08T23:27:24.936Z,98447.67
2018-05-08T23:29:52.486Z,98447.34
2018-05-08T23:32:20.016Z,98447.39
2018-05-08T23:34:47.565Z,98453.28
2018-05-08T23:37:15.105Z,98450.14
2018-05-08T23:39:42.671Z,98450.34
2018-05-08T23:42:10.195Z,98452.14
2018-05-08T23:44:37.749Z,98441.97
2018-05-08T23:47:05.277Z,98433.88
2018-05-08T23:49:32.825Z,98440.83
2018-05-08T23:52:01.337Z,98440.84
2018-05-08T23:54:28.886Z,98436.66
2018-05-08T23:56:56.511Z,98433.13
2018-05-08T23:59:24.134Z,98432.35
